sensor_id;sensor_type;location;lat;lon;timestamp;P1;durP1;ratioP1;P2;durP2;ratioP2
44810;SDS011;30526;52.184;4.476;2023-09-18T00:02:19;47.92;;;27.75;;
44810;SDS011;30526;52.184;4.476;2023-09-18T00:04:45;45.13;;;26.92;;
44810;SDS011;30526;52.184;4.476;2023-09-18T00:07:11;47.08;;;27.10;;
44810;SDS011;30526;52.184;4.476;2023-09-18T00:09:37;45.00;;;26.77;;
44810;SDS011;30526;52.184;4.476;2023-09-18T00:12:03;42.45;;;26.25;;
44810;SDS011;30526;52.184;4.476;2023-09-18T00:14:29;40.42;;;25.25;;
44810;SDS011;30526;52.184;4.476;2023-09-18T00:16:55;46.53;;;25.52;;
44810;SDS011;30526;52.184;4.476;2023-09-18T00:19:22;43.65;;;27.23;;
44810;SDS011;30526;52.184;4.476;2023-09-18T00:21:49;39.23;;;23.73;;
44810;SDS011;30526;52.184;4.476;2023-09-18T00:24:15;44.28;;;25.55;;
44810;SDS011;30526;52.184;4.476;2023-09-18T00:26:42;38.55;;;24.67;;
44810;SDS011;30526;52.184;4.476;2023-09-18T00:29:08;37.72;;;24.60;;
44810;SDS011;30526;52.184;4.476;2023-09-18T00:31:34;37.53;;;24.45;;
44810;SDS011;30526;52.184;4.476;2023-09-18T00:34:00;35.38;;;24.63;;
44810;SDS011;30526;52.184;4.476;2023-09-18T00:36:26;44.45;;;26.88;;
44810;SDS011;30526;52.184;4.476;2023-09-18T00:38:52;37.72;;;25.80;;
44810;SDS011;30526;52.184;4.476;2023-09-18T00:41:18;42.88;;;26.23;;
44810;SDS011;30526;52.184;4.476;2023-09-18T00:43:44;36.40;;;24.05;;
44810;SDS011;30526;52.184;4.476;2023-09-18T00:46:10;38.70;;;24.23;;
44810;SDS011;30526;52.184;4.476;2023-09-18T00:48:35;39.30;;;26.83;;
44810;SDS011;30526;52.184;4.476;2023-09-18T00:51:01;34.65;;;25.50;;
44810;SDS011;30526;52.184;4.476;2023-09-18T00:53:28;35.88;;;24.08;;
44810;SDS011;30526;52.184;4.476;2023-09-18T00:55:55;38.25;;;24.25;;
44810;SDS011;30526;52.184;4.476;2023-09-18T00:58:22;36.33;;;23.65;;
44810;SDS011;30526;52.184;4.476;2023-09-18T01:00:48;38.07;;;26.10;;
44810;SDS011;30526;52.184;4.476;2023-09-18T01:03:16;35.47;;;24.40;;
44810;SDS011;30526;52.184;4.476;2023-09-18T01:08:09;36.80;;;23.73;;
44810;SDS011;30526;52.184;4.476;2023-09-18T01:10:47;37.07;;;25.13;;
44810;SDS011;30526;52.184;4.476;2023-09-18T01:13:14;36.47;;;25.15;;
44810;SDS011;30526;52.184;4.476;2023-09-18T01:15:54;39.22;;;27.10;;
44810;SDS011;30526;52.184;4.476;2023-09-18T01:18:22;32.28;;;23.77;;
44810;SDS011;30526;52.184;4.476;2023-09-18T01:20:48;37.10;;;25.17;;
44810;SDS011;30526;52.184;4.476;2023-09-18T01:23:14;40.28;;;25.65;;
44810;SDS011;30526;52.184;4.476;2023-09-18T01:25:40;45.08;;;27.15;;
44810;SDS011;30526;52.184;4.476;2023-09-18T01:28:06;35.15;;;24.52;;
44810;SDS011;30526;52.184;4.476;2023-09-18T01:30:32;37.17;;;24.60;;
44810;SDS011;30526;52.184;4.476;2023-09-18T01:32:59;35.28;;;24.63;;
44810;SDS011;30526;52.184;4.476;2023-09-18T01:35:27;35.20;;;24.35;;
44810;SDS011;30526;52.184;4.476;2023-09-18T01:37:58;37.90;;;25.20;;
44810;SDS011;30526;52.184;4.476;2023-09-18T01:40:28;35.17;;;25.20;;
44810;SDS011;30526;52.184;4.476;2023-09-18T01:42:54;38.40;;;25.73;;
44810;SDS011;30526;52.184;4.476;2023-09-18T01:45:20;41.20;;;25.58;;
44810;SDS011;30526;52.184;4.476;2023-09-18T01:47:46;36.17;;;24.98;;
44810;SDS011;30526;52.184;4.476;2023-09-18T01:50:12;38.30;;;25.80;;
44810;SDS011;30526;52.184;4.476;2023-09-18T01:52:38;36.13;;;24.70;;
44810;SDS011;30526;52.184;4.476;2023-09-18T01:55:04;37.60;;;24.52;;
44810;SDS011;30526;52.184;4.476;2023-09-18T01:57:31;34.13;;;23.98;;
44810;SDS011;30526;52.184;4.476;2023-09-18T01:59:57;34.47;;;22.75;;
44810;SDS011;30526;52.184;4.476;2023-09-18T02:02:23;35.70;;;25.00;;
44810;SDS011;30526;52.184;4.476;2023-09-18T02:04:49;33.40;;;24.15;;
44810;SDS011;30526;52.184;4.476;2023-09-18T02:07:15;35.50;;;25.58;;
44810;SDS011;30526;52.184;4.476;2023-09-18T02:09:41;37.63;;;23.35;;
44810;SDS011;30526;52.184;4.476;2023-09-18T02:12:07;34.22;;;23.95;;
44810;SDS011;30526;52.184;4.476;2023-09-18T02:14:33;35.05;;;24.83;;
44810;SDS011;30526;52.184;4.476;2023-09-18T02:16:59;36.20;;;25.25;;
44810;SDS011;30526;52.184;4.476;2023-09-18T02:19:25;35.28;;;24.92;;
44810;SDS011;30526;52.184;4.476;2023-09-18T02:21:51;36.45;;;24.10;;
44810;SDS011;30526;52.184;4.476;2023-09-18T02:24:17;42.17;;;25.38;;
44810;SDS011;30526;52.184;4.476;2023-09-18T02:26:44;40.08;;;25.80;;
44810;SDS011;30526;52.184;4.476;2023-09-18T02:29:10;34.65;;;24.65;;
44810;SDS011;30526;52.184;4.476;2023-09-18T02:31:38;36.03;;;24.00;;
44810;SDS011;30526;52.184;4.476;2023-09-18T02:34:04;33.13;;;24.38;;
44810;SDS011;30526;52.184;4.476;2023-09-18T02:36:30;35.88;;;25.90;;
44810;SDS011;30526;52.184;4.476;2023-09-18T02:38:57;33.10;;;24.35;;
44810;SDS011;30526;52.184;4.476;2023-09-18T02:41:23;32.75;;;24.15;;
44810;SDS011;30526;52.184;4.476;2023-09-18T02:43:49;36.17;;;24.40;;
44810;SDS011;30526;52.184;4.476;2023-09-18T02:46:15;45.85;;;25.55;;
44810;SDS011;30526;52.184;4.476;2023-09-18T02:48:40;32.65;;;23.63;;
44810;SDS011;30526;52.184;4.476;2023-09-18T02:51:08;34.17;;;23.05;;
44810;SDS011;30526;52.184;4.476;2023-09-18T02:56:00;34.27;;;23.00;;
44810;SDS011;30526;52.184;4.476;2023-09-18T02:58:26;32.95;;;23.38;;
44810;SDS011;30526;52.184;4.476;2023-09-18T03:00:54;34.13;;;23.02;;
44810;SDS011;30526;52.184;4.476;2023-09-18T03:03:20;30.98;;;22.38;;
44810;SDS011;30526;52.184;4.476;2023-09-18T03:05:46;30.55;;;22.73;;
44810;SDS011;30526;52.184;4.476;2023-09-18T03:08:13;36.28;;;22.63;;
44810;SDS011;30526;52.184;4.476;2023-09-18T03:10:41;32.60;;;22.80;;
44810;SDS011;30526;52.184;4.476;2023-09-18T03:13:08;35.33;;;23.20;;
44810;SDS011;30526;52.184;4.476;2023-09-18T03:15:34;33.58;;;23.15;;
44810;SDS011;30526;52.184;4.476;2023-09-18T03:18:01;28.80;;;21.75;;
44810;SDS011;30526;52.184;4.476;2023-09-18T03:20:27;33.28;;;22.85;;
44810;SDS011;30526;52.184;4.476;2023-09-18T03:22:54;34.77;;;22.47;;
44810;SDS011;30526;52.184;4.476;2023-09-18T03:25:21;30.23;;;21.58;;
44810;SDS011;30526;52.184;4.476;2023-09-18T03:27:47;34.63;;;22.15;;
44810;SDS011;30526;52.184;4.476;2023-09-18T03:30:13;32.97;;;22.70;;
44810;SDS011;30526;52.184;4.476;2023-09-18T03:32:42;26.92;;;19.63;;
44810;SDS011;30526;52.184;4.476;2023-09-18T03:35:11;32.17;;;22.45;;
44810;SDS011;30526;52.184;4.476;2023-09-18T03:37:44;28.98;;;20.25;;
44810;SDS011;30526;52.184;4.476;2023-09-18T03:40:10;39.10;;;24.15;;
44810;SDS011;30526;52.184;4.476;2023-09-18T03:42:36;28.80;;;21.30;;
44810;SDS011;30526;52.184;4.476;2023-09-18T03:45:03;33.25;;;21.83;;
44810;SDS011;30526;52.184;4.476;2023-09-18T03:47:29;33.33;;;21.77;;
44810;SDS011;30526;52.184;4.476;2023-09-18T03:49:55;32.95;;;21.50;;
44810;SDS011;30526;52.184;4.476;2023-09-18T03:52:21;32.75;;;22.23;;
44810;SDS011;30526;52.184;4.476;2023-09-18T03:54:48;34.17;;;22.35;;
44810;SDS011;30526;52.184;4.476;2023-09-18T03:57:14;36.75;;;22.02;;
44810;SDS011;30526;52.184;4.476;2023-09-18T03:59:40;40.00;;;22.60;;
44810;SDS011;30526;52.184;4.476;2023-09-18T04:02:06;37.17;;;21.38;;
44810;SDS011;30526;52.184;4.476;2023-09-18T04:04:32;40.88;;;23.10;;
44810;SDS011;30526;52.184;4.476;2023-09-18T04:06:58;39.75;;;23.73;;
44810;SDS011;30526;52.184;4.476;2023-09-18T04:09:24;40.40;;;24.05;;
44810;SDS011;30526;52.184;4.476;2023-09-18T04:11:50;36.30;;;23.05;;
44810;SDS011;30526;52.184;4.476;2023-09-18T04:14:17;43.25;;;23.42;;
44810;SDS011;30526;52.184;4.476;2023-09-18T04:16:43;45.88;;;22.40;;
44810;SDS011;30526;52.184;4.476;2023-09-18T04:19:09;39.30;;;21.77;;
44810;SDS011;30526;52.184;4.476;2023-09-18T04:21:35;37.90;;;21.00;;
44810;SDS011;30526;52.184;4.476;2023-09-18T04:24:01;44.40;;;21.73;;
44810;SDS011;30526;52.184;4.476;2023-09-18T04:26:27;45.85;;;20.02;;
44810;SDS011;30526;52.184;4.476;2023-09-18T04:28:58;65.28;;;20.38;;
44810;SDS011;30526;52.184;4.476;2023-09-18T04:31:24;48.92;;;18.58;;
44810;SDS011;30526;52.184;4.476;2023-09-18T04:33:50;33.17;;;16.42;;
44810;SDS011;30526;52.184;4.476;2023-09-18T04:36:16;50.90;;;15.52;;
44810;SDS011;30526;52.184;4.476;2023-09-18T04:38:42;33.33;;;15.27;;
44810;SDS011;30526;52.184;4.476;2023-09-18T04:41:08;43.80;;;16.65;;
44810;SDS011;30526;52.184;4.476;2023-09-18T04:46:03;31.33;;;13.38;;
44810;SDS011;30526;52.184;4.476;2023-09-18T04:48:30;32.50;;;15.55;;
44810;SDS011;30526;52.184;4.476;2023-09-18T04:50:56;41.03;;;13.93;;
44810;SDS011;30526;52.184;4.476;2023-09-18T04:53:23;24.58;;;13.77;;
44810;SDS011;30526;52.184;4.476;2023-09-18T04:55:49;31.75;;;13.20;;
44810;SDS011;30526;52.184;4.476;2023-09-18T04:58:15;30.55;;;11.88;;
44810;SDS011;30526;52.184;4.476;2023-09-18T05:00:42;16.17;;;8.00;;
44810;SDS011;30526;52.184;4.476;2023-09-18T05:03:08;23.42;;;11.32;;
44810;SDS011;30526;52.184;4.476;2023-09-18T05:05:35;23.52;;;10.10;;
44810;SDS011;30526;52.184;4.476;2023-09-18T05:08:01;22.98;;;9.20;;
44810;SDS011;30526;52.184;4.476;2023-09-18T05:10:32;19.05;;;9.07;;
44810;SDS011;30526;52.184;4.476;2023-09-18T05:12:58;18.08;;;10.05;;
44810;SDS011;30526;52.184;4.476;2023-09-18T05:15:24;20.70;;;10.30;;
44810;SDS011;30526;52.184;4.476;2023-09-18T05:17:51;22.77;;;10.70;;
44810;SDS011;30526;52.184;4.476;2023-09-18T05:20:22;20.67;;;11.40;;
44810;SDS011;30526;52.184;4.476;2023-09-18T05:22:49;28.05;;;12.50;;
44810;SDS011;30526;52.184;4.476;2023-09-18T05:25:17;22.50;;;12.55;;
44810;SDS011;30526;52.184;4.476;2023-09-18T05:27:44;31.48;;;14.40;;
44810;SDS011;30526;52.184;4.476;2023-09-18T05:30:19;35.33;;;14.35;;
44810;SDS011;30526;52.184;4.476;2023-09-18T05:32:46;30.97;;;14.77;;
44810;SDS011;30526;52.184;4.476;2023-09-18T05:35:13;30.20;;;16.88;;
44810;SDS011;30526;52.184;4.476;2023-09-18T05:37:40;40.20;;;17.50;;
44810;SDS011;30526;52.184;4.476;2023-09-18T05:40:06;39.17;;;17.75;;
44810;SDS011;30526;52.184;4.476;2023-09-18T05:42:36;45.30;;;19.23;;
44810;SDS011;30526;52.184;4.476;2023-09-18T05:45:03;35.40;;;16.88;;
44810;SDS011;30526;52.184;4.476;2023-09-18T05:47:32;38.60;;;16.88;;
44810;SDS011;30526;52.184;4.476;2023-09-18T05:49:58;34.08;;;16.83;;
44810;SDS011;30526;52.184;4.476;2023-09-18T05:52:25;37.60;;;17.23;;
44810;SDS011;30526;52.184;4.476;2023-09-18T05:54:51;34.17;;;17.83;;
44810;SDS011;30526;52.184;4.476;2023-09-18T05:57:17;39.40;;;17.60;;
44810;SDS011;30526;52.184;4.476;2023-09-18T05:59:43;36.03;;;15.98;;
44810;SDS011;30526;52.184;4.476;2023-09-18T06:02:10;41.63;;;15.50;;
44810;SDS011;30526;52.184;4.476;2023-09-18T06:04:37;26.85;;;15.27;;
44810;SDS011;30526;52.184;4.476;2023-09-18T06:09:29;27.80;;;15.07;;
44810;SDS011;30526;52.184;4.476;2023-09-18T06:11:55;31.65;;;15.38;;
44810;SDS011;30526;52.184;4.476;2023-09-18T06:14:22;36.63;;;15.00;;
44810;SDS011;30526;52.184;4.476;2023-09-18T06:16:48;25.73;;;14.38;;
44810;SDS011;30526;52.184;4.476;2023-09-18T06:19:15;26.65;;;13.63;;
44810;SDS011;30526;52.184;4.476;2023-09-18T06:21:44;26.02;;;12.43;;
44810;SDS011;30526;52.184;4.476;2023-09-18T06:24:10;25.92;;;12.25;;
44810;SDS011;30526;52.184;4.476;2023-09-18T06:26:37;32.42;;;13.65;;
44810;SDS011;30526;52.184;4.476;2023-09-18T06:29:03;19.88;;;11.77;;
44810;SDS011;30526;52.184;4.476;2023-09-18T06:31:29;24.08;;;12.65;;
44810;SDS011;30526;52.184;4.476;2023-09-18T06:33:56;27.83;;;13.52;;
44810;SDS011;30526;52.184;4.476;2023-09-18T06:36:22;28.98;;;13.05;;
44810;SDS011;30526;52.184;4.476;2023-09-18T06:38:48;27.55;;;13.82;;
44810;SDS011;30526;52.184;4.476;2023-09-18T06:41:14;23.52;;;13.15;;
44810;SDS011;30526;52.184;4.476;2023-09-18T06:43:40;24.25;;;13.40;;
44810;SDS011;30526;52.184;4.476;2023-09-18T06:46:09;22.50;;;13.13;;
44810;SDS011;30526;52.184;4.476;2023-09-18T06:48:35;36.90;;;14.65;;
44810;SDS011;30526;52.184;4.476;2023-09-18T06:51:01;29.98;;;14.20;;
44810;SDS011;30526;52.184;4.476;2023-09-18T06:53:27;28.38;;;14.52;;
44810;SDS011;30526;52.184;4.476;2023-09-18T06:55:54;15.67;;;10.73;;
44810;SDS011;30526;52.184;4.476;2023-09-18T06:58:20;32.63;;;14.73;;
44810;SDS011;30526;52.184;4.476;2023-09-18T07:00:46;34.63;;;15.82;;
44810;SDS011;30526;52.184;4.476;2023-09-18T07:03:15;25.27;;;14.20;;
44810;SDS011;30526;52.184;4.476;2023-09-18T07:08:08;25.40;;;15.33;;
44810;SDS011;30526;52.184;4.476;2023-09-18T07:10:37;23.60;;;14.55;;
44810;SDS011;30526;52.184;4.476;2023-09-18T07:13:03;29.33;;;14.27;;
44810;SDS011;30526;52.184;4.476;2023-09-18T07:15:29;24.38;;;13.70;;
44810;SDS011;30526;52.184;4.476;2023-09-18T07:17:55;22.45;;;13.82;;
44810;SDS011;30526;52.184;4.476;2023-09-18T07:20:21;21.55;;;12.90;;
44810;SDS011;30526;52.184;4.476;2023-09-18T07:22:48;22.80;;;12.02;;
44810;SDS011;30526;52.184;4.476;2023-09-18T07:25:15;19.77;;;11.90;;
44810;SDS011;30526;52.184;4.476;2023-09-18T07:27:42;20.13;;;11.52;;
44810;SDS011;30526;52.184;4.476;2023-09-18T07:30:12;19.45;;;10.88;;
44810;SDS011;30526;52.184;4.476;2023-09-18T07:32:41;17.23;;;10.23;;
44810;SDS011;30526;52.184;4.476;2023-09-18T07:35:07;14.68;;;9.55;;
44810;SDS011;30526;52.184;4.476;2023-09-18T07:37:34;22.10;;;9.90;;
44810;SDS011;30526;52.184;4.476;2023-09-18T07:40:01;12.82;;;8.60;;
44810;SDS011;30526;52.184;4.476;2023-09-18T07:42:27;14.93;;;7.78;;
44810;SDS011;30526;52.184;4.476;2023-09-18T07:44:53;14.98;;;6.93;;
44810;SDS011;30526;52.184;4.476;2023-09-18T07:47:19;14.23;;;6.90;;
44810;SDS011;30526;52.184;4.476;2023-09-18T07:49:45;12.90;;;6.30;;
44810;SDS011;30526;52.184;4.476;2023-09-18T07:52:12;15.23;;;7.13;;
44810;SDS011;30526;52.184;4.476;2023-09-18T07:54:38;10.93;;;7.00;;
44810;SDS011;30526;52.184;4.476;2023-09-18T07:57:04;18.67;;;5.75;;
44810;SDS011;30526;52.184;4.476;2023-09-18T07:59:34;12.35;;;6.05;;
44810;SDS011;30526;52.184;4.476;2023-09-18T08:02:00;13.10;;;6.55;;
44810;SDS011;30526;52.184;4.476;2023-09-18T08:04:26;15.15;;;6.50;;
44810;SDS011;30526;52.184;4.476;2023-09-18T08:06:52;10.07;;;6.55;;
44810;SDS011;30526;52.184;4.476;2023-09-18T08:09:18;10.90;;;5.97;;
44810;SDS011;30526;52.184;4.476;2023-09-18T08:11:44;14.32;;;5.47;;
44810;SDS011;30526;52.184;4.476;2023-09-18T08:14:10;9.40;;;5.10;;
44810;SDS011;30526;52.184;4.476;2023-09-18T08:16:37;8.45;;;4.72;;
44810;SDS011;30526;52.184;4.476;2023-09-18T08:19:04;10.95;;;4.93;;
44810;SDS011;30526;52.184;4.476;2023-09-18T08:21:30;7.25;;;4.50;;
44810;SDS011;30526;52.184;4.476;2023-09-18T08:23:56;7.03;;;4.33;;
44810;SDS011;30526;52.184;4.476;2023-09-18T08:26:22;9.02;;;4.22;;
44810;SDS011;30526;52.184;4.476;2023-09-18T08:28:49;9.45;;;3.00;;
44810;SDS011;30526;52.184;4.476;2023-09-18T08:31:15;9.30;;;3.75;;
44810;SDS011;30526;52.184;4.476;2023-09-18T08:33:41;9.00;;;4.22;;
44810;SDS011;30526;52.184;4.476;2023-09-18T08:36:08;8.68;;;3.42;;
44810;SDS011;30526;52.184;4.476;2023-09-18T08:38:34;6.75;;;3.42;;
44810;SDS011;30526;52.184;4.476;2023-09-18T08:41:00;7.55;;;3.20;;
44810;SDS011;30526;52.184;4.476;2023-09-18T08:43:27;6.82;;;3.42;;
44810;SDS011;30526;52.184;4.476;2023-09-18T08:48:23;7.22;;;3.60;;
44810;SDS011;30526;52.184;4.476;2023-09-18T08:50:49;5.85;;;3.17;;
44810;SDS011;30526;52.184;4.476;2023-09-18T08:53:15;4.45;;;3.03;;
44810;SDS011;30526;52.184;4.476;2023-09-18T08:55:41;11.88;;;4.63;;
44810;SDS011;30526;52.184;4.476;2023-09-18T08:58:07;7.85;;;3.15;;
44810;SDS011;30526;52.184;4.476;2023-09-18T09:00:33;5.38;;;3.53;;
44810;SDS011;30526;52.184;4.476;2023-09-18T09:03:02;8.57;;;3.55;;
44810;SDS011;30526;52.184;4.476;2023-09-18T09:05:29;7.22;;;3.28;;
44810;SDS011;30526;52.184;4.476;2023-09-18T09:07:55;8.70;;;2.80;;
44810;SDS011;30526;52.184;4.476;2023-09-18T09:10:22;6.03;;;3.38;;
44810;SDS011;30526;52.184;4.476;2023-09-18T09:15:19;6.03;;;3.58;;
44810;SDS011;30526;52.184;4.476;2023-09-18T09:17:45;8.87;;;3.17;;
44810;SDS011;30526;52.184;4.476;2023-09-18T09:20:12;8.52;;;4.22;;
44810;SDS011;30526;52.184;4.476;2023-09-18T09:22:38;9.38;;;4.85;;
44810;SDS011;30526;52.184;4.476;2023-09-18T09:27:41;5.93;;;3.70;;
44810;SDS011;30526;52.184;4.476;2023-09-18T09:30:08;7.18;;;3.53;;
44810;SDS011;30526;52.184;4.476;2023-09-18T09:32:34;7.57;;;3.90;;
44810;SDS011;30526;52.184;4.476;2023-09-18T09:35:00;7.03;;;3.88;;
44810;SDS011;30526;52.184;4.476;2023-09-18T09:37:29;7.07;;;3.22;;
44810;SDS011;30526;52.184;4.476;2023-09-18T09:39:56;12.75;;;4.15;;
44810;SDS011;30526;52.184;4.476;2023-09-18T09:42:24;8.40;;;3.75;;
44810;SDS011;30526;52.184;4.476;2023-09-18T09:45:04;7.03;;;3.80;;
44810;SDS011;30526;52.184;4.476;2023-09-18T09:47:36;8.00;;;3.75;;
44810;SDS011;30526;52.184;4.476;2023-09-18T09:50:06;7.28;;;3.88;;
44810;SDS011;30526;52.184;4.476;2023-09-18T09:52:33;7.13;;;4.20;;
44810;SDS011;30526;52.184;4.476;2023-09-18T09:54:59;5.30;;;4.20;;
44810;SDS011;30526;52.184;4.476;2023-09-18T09:57:25;8.93;;;3.95;;
44810;SDS011;30526;52.184;4.476;2023-09-18T09:59:51;6.43;;;3.45;;
44810;SDS011;30526;52.184;4.476;2023-09-18T10:02:19;4.72;;;4.07;;
44810;SDS011;30526;52.184;4.476;2023-09-18T10:04:47;5.38;;;3.55;;
44810;SDS011;30526;52.184;4.476;2023-09-18T10:07:15;7.35;;;3.88;;
44810;SDS011;30526;52.184;4.476;2023-09-18T10:09:43;6.93;;;3.50;;
44810;SDS011;30526;52.184;4.476;2023-09-18T10:12:10;5.55;;;4.10;;
44810;SDS011;30526;52.184;4.476;2023-09-18T10:14:36;12.27;;;3.95;;
44810;SDS011;30526;52.184;4.476;2023-09-18T10:17:12;3.58;;;3.28;;
44810;SDS011;30526;52.184;4.476;2023-09-18T10:24:36;4.70;;;3.40;;
44810;SDS011;30526;52.184;4.476;2023-09-18T10:27:03;7.68;;;3.75;;
44810;SDS011;30526;52.184;4.476;2023-09-18T10:29:32;8.10;;;3.80;;
44810;SDS011;30526;52.184;4.476;2023-09-18T10:31:59;8.48;;;3.83;;
44810;SDS011;30526;52.184;4.476;2023-09-18T10:34:28;10.80;;;4.88;;
44810;SDS011;30526;52.184;4.476;2023-09-18T10:36:56;8.98;;;3.40;;
44810;SDS011;30526;52.184;4.476;2023-09-18T10:39:23;6.28;;;3.42;;
44810;SDS011;30526;52.184;4.476;2023-09-18T10:41:55;6.88;;;3.42;;
44810;SDS011;30526;52.184;4.476;2023-09-18T10:44:26;8.13;;;3.50;;
44810;SDS011;30526;52.184;4.476;2023-09-18T10:46:53;5.00;;;3.50;;
44810;SDS011;30526;52.184;4.476;2023-09-18T10:49:23;5.78;;;3.17;;
44810;SDS011;30526;52.184;4.476;2023-09-18T10:54:16;7.37;;;3.10;;
44810;SDS011;30526;52.184;4.476;2023-09-18T10:56:43;5.10;;;3.10;;
44810;SDS011;30526;52.184;4.476;2023-09-18T10:59:09;9.80;;;3.60;;
44810;SDS011;30526;52.184;4.476;2023-09-18T11:01:36;6.45;;;2.90;;
44810;SDS011;30526;52.184;4.476;2023-09-18T11:04:05;6.33;;;2.67;;
44810;SDS011;30526;52.184;4.476;2023-09-18T11:09:40;7.63;;;3.10;;
44810;SDS011;30526;52.184;4.476;2023-09-18T11:12:06;5.18;;;2.83;;
44810;SDS011;30526;52.184;4.476;2023-09-18T11:17:36;4.63;;;2.80;;
44810;SDS011;30526;52.184;4.476;2023-09-18T11:22:37;9.73;;;2.90;;
44810;SDS011;30526;52.184;4.476;2023-09-18T11:27:52;5.45;;;2.50;;
44810;SDS011;30526;52.184;4.476;2023-09-18T11:30:21;4.95;;;2.47;;
44810;SDS011;30526;52.184;4.476;2023-09-18T11:35:14;7.67;;;2.80;;
44810;SDS011;30526;52.184;4.476;2023-09-18T11:37:43;4.15;;;2.25;;
44810;SDS011;30526;52.184;4.476;2023-09-18T11:45:44;5.97;;;2.58;;
44810;SDS011;30526;52.184;4.476;2023-09-18T11:48:12;3.53;;;2.22;;
44810;SDS011;30526;52.184;4.476;2023-09-18T11:53:05;3.43;;;2.07;;
44810;SDS011;30526;52.184;4.476;2023-09-18T11:55:31;4.30;;;2.22;;
44810;SDS011;30526;52.184;4.476;2023-09-18T11:57:59;4.03;;;2.20;;
44810;SDS011;30526;52.184;4.476;2023-09-18T12:00:26;4.60;;;2.22;;
44810;SDS011;30526;52.184;4.476;2023-09-18T12:02:54;9.07;;;2.00;;
44810;SDS011;30526;52.184;4.476;2023-09-18T12:05:22;7.57;;;2.15;;
44810;SDS011;30526;52.184;4.476;2023-09-18T12:07:51;3.53;;;1.77;;
44810;SDS011;30526;52.184;4.476;2023-09-18T12:10:19;3.72;;;2.47;;
44810;SDS011;30526;52.184;4.476;2023-09-18T12:12:47;5.78;;;2.97;;
44810;SDS011;30526;52.184;4.476;2023-09-18T12:15:16;6.93;;;3.17;;
44810;SDS011;30526;52.184;4.476;2023-09-18T12:17:42;4.05;;;2.85;;
44810;SDS011;30526;52.184;4.476;2023-09-18T12:20:26;4.40;;;2.27;;
44810;SDS011;30526;52.184;4.476;2023-09-18T12:22:52;7.82;;;2.38;;
44810;SDS011;30526;52.184;4.476;2023-09-18T12:25:18;5.20;;;2.55;;
44810;SDS011;30526;52.184;4.476;2023-09-18T12:27:44;2.80;;;1.80;;
44810;SDS011;30526;52.184;4.476;2023-09-18T12:30:11;3.87;;;2.50;;
44810;SDS011;30526;52.184;4.476;2023-09-18T12:32:40;3.78;;;1.90;;
44810;SDS011;30526;52.184;4.476;2023-09-18T12:35:06;5.97;;;1.77;;
44810;SDS011;30526;52.184;4.476;2023-09-18T12:39:58;8.13;;;1.73;;
44810;SDS011;30526;52.184;4.476;2023-09-18T12:42:24;3.85;;;1.90;;
44810;SDS011;30526;52.184;4.476;2023-09-18T12:44:51;3.35;;;1.98;;
44810;SDS011;30526;52.184;4.476;2023-09-18T12:47:17;3.40;;;2.05;;
44810;SDS011;30526;52.184;4.476;2023-09-18T12:49:43;5.63;;;2.10;;
44810;SDS011;30526;52.184;4.476;2023-09-18T12:52:10;6.88;;;2.47;;
44810;SDS011;30526;52.184;4.476;2023-09-18T12:54:45;7.97;;;2.20;;
44810;SDS011;30526;52.184;4.476;2023-09-18T12:57:18;5.03;;;2.70;;
44810;SDS011;30526;52.184;4.476;2023-09-18T12:59:44;4.75;;;2.85;;
44810;SDS011;30526;52.184;4.476;2023-09-18T13:02:14;4.43;;;2.50;;
44810;SDS011;30526;52.184;4.476;2023-09-18T13:04:40;6.35;;;2.40;;
44810;SDS011;30526;52.184;4.476;2023-09-18T13:07:07;5.13;;;2.50;;
44810;SDS011;30526;52.184;4.476;2023-09-18T13:09:33;3.70;;;2.50;;
44810;SDS011;30526;52.184;4.476;2023-09-18T13:12:00;7.38;;;2.40;;
44810;SDS011;30526;52.184;4.476;2023-09-18T13:14:27;3.10;;;2.33;;
44810;SDS011;30526;52.184;4.476;2023-09-18T13:16:53;4.10;;;2.38;;
44810;SDS011;30526;52.184;4.476;2023-09-18T13:19:19;2.55;;;2.10;;
44810;SDS011;30526;52.184;4.476;2023-09-18T13:21:48;6.00;;;2.40;;
44810;SDS011;30526;52.184;4.476;2023-09-18T13:24:28;6.45;;;2.42;;
44810;SDS011;30526;52.184;4.476;2023-09-18T13:26:54;5.82;;;2.53;;
44810;SDS011;30526;52.184;4.476;2023-09-18T13:29:21;7.10;;;2.35;;
44810;SDS011;30526;52.184;4.476;2023-09-18T13:31:47;4.18;;;2.30;;
44810;SDS011;30526;52.184;4.476;2023-09-18T13:34:13;4.78;;;2.40;;
44810;SDS011;30526;52.184;4.476;2023-09-18T13:36:42;4.57;;;2.13;;
44810;SDS011;30526;52.184;4.476;2023-09-18T13:39:08;3.37;;;2.57;;
44810;SDS011;30526;52.184;4.476;2023-09-18T13:41:34;5.75;;;2.97;;
44810;SDS011;30526;52.184;4.476;2023-09-18T13:44:00;7.60;;;3.20;;
44810;SDS011;30526;52.184;4.476;2023-09-18T13:46:26;6.32;;;2.80;;
44810;SDS011;30526;52.184;4.476;2023-09-18T13:48:52;5.35;;;2.60;;
44810;SDS011;30526;52.184;4.476;2023-09-18T13:51:19;5.38;;;2.85;;
44810;SDS011;30526;52.184;4.476;2023-09-18T13:53:45;5.32;;;3.08;;
44810;SDS011;30526;52.184;4.476;2023-09-18T13:56:13;5.97;;;3.15;;
44810;SDS011;30526;52.184;4.476;2023-09-18T13:58:39;5.10;;;2.92;;
44810;SDS011;30526;52.184;4.476;2023-09-18T14:01:06;4.75;;;2.90;;
44810;SDS011;30526;52.184;4.476;2023-09-18T14:03:32;5.07;;;3.00;;
44810;SDS011;30526;52.184;4.476;2023-09-18T14:05:59;4.93;;;2.90;;
44810;SDS011;30526;52.184;4.476;2023-09-18T14:08:25;5.85;;;2.92;;
44810;SDS011;30526;52.184;4.476;2023-09-18T14:10:51;5.18;;;2.40;;
44810;SDS011;30526;52.184;4.476;2023-09-18T14:13:17;4.70;;;2.20;;
44810;SDS011;30526;52.184;4.476;2023-09-18T14:15:43;5.57;;;3.30;;
44810;SDS011;30526;52.184;4.476;2023-09-18T14:18:09;4.82;;;2.85;;
44810;SDS011;30526;52.184;4.476;2023-09-18T14:20:35;12.30;;;4.50;;
44810;SDS011;30526;52.184;4.476;2023-09-18T14:23:03;14.05;;;4.97;;
44810;SDS011;30526;52.184;4.476;2023-09-18T14:25:31;14.02;;;5.35;;
44810;SDS011;30526;52.184;4.476;2023-09-18T14:27:58;7.43;;;4.93;;
44810;SDS011;30526;52.184;4.476;2023-09-18T14:30:24;14.77;;;5.15;;
44810;SDS011;30526;52.184;4.476;2023-09-18T14:32:55;7.15;;;3.38;;
44810;SDS011;30526;52.184;4.476;2023-09-18T14:35:21;6.28;;;2.70;;
44810;SDS011;30526;52.184;4.476;2023-09-18T14:37:48;4.15;;;2.50;;
44810;SDS011;30526;52.184;4.476;2023-09-18T14:40:14;6.28;;;2.58;;
44810;SDS011;30526;52.184;4.476;2023-09-18T14:42:40;4.72;;;2.33;;
44810;SDS011;30526;52.184;4.476;2023-09-18T14:45:06;8.45;;;2.17;;
44810;SDS011;30526;52.184;4.476;2023-09-18T14:47:32;6.47;;;2.73;;
44810;SDS011;30526;52.184;4.476;2023-09-18T14:49:58;5.25;;;2.28;;
44810;SDS011;30526;52.184;4.476;2023-09-18T14:52:26;5.43;;;2.10;;
44810;SDS011;30526;52.184;4.476;2023-09-18T14:54:52;7.45;;;2.05;;
44810;SDS011;30526;52.184;4.476;2023-09-18T14:57:18;11.07;;;2.40;;
44810;SDS011;30526;52.184;4.476;2023-09-18T14:59:44;9.10;;;2.30;;
44810;SDS011;30526;52.184;4.476;2023-09-18T15:02:12;9.05;;;1.90;;
44810;SDS011;30526;52.184;4.476;2023-09-18T15:04:40;7.28;;;2.03;;
44810;SDS011;30526;52.184;4.476;2023-09-18T15:07:06;7.25;;;1.73;;
44810;SDS011;30526;52.184;4.476;2023-09-18T15:09:32;3.53;;;1.95;;
44810;SDS011;30526;52.184;4.476;2023-09-18T15:11:58;7.75;;;1.88;;
44810;SDS011;30526;52.184;4.476;2023-09-18T15:14:24;6.18;;;1.70;;
44810;SDS011;30526;52.184;4.476;2023-09-18T15:16:50;3.90;;;1.50;;
44810;SDS011;30526;52.184;4.476;2023-09-18T15:19:16;6.32;;;1.73;;
44810;SDS011;30526;52.184;4.476;2023-09-18T15:21:42;9.02;;;1.40;;
44810;SDS011;30526;52.184;4.476;2023-09-18T15:24:09;4.13;;;1.50;;